createdAt,value
2023-03-20T00:14:07.671Z,0.00
2023-03-20T00:29:07.802Z,0.00
2023-03-20T00:44:07.965Z,0.00
2023-03-20T00:59:08.242Z,0.00
2023-03-20T01:14:08.356Z,0.00
2023-03-20T01:29:08.434Z,0.00
2023-03-20T01:44:08.718Z,0.00
2023-03-20T01:59:09.469Z,0.00
2023-03-20T02:14:29.914Z,0.00
2023-03-20T02:29:31.140Z,0.00
2023-03-20T02:44:32.940Z,0.00
2023-03-20T02:59:33.839Z,0.00
2023-03-20T03:14:34.543Z,0.00
2023-03-20T03:29:34.912Z,0.00
2023-03-20T03:44:36.929Z,0.00
2023-03-20T03:59:37.008Z,0.00
2023-03-20T04:14:37.790Z,0.00
2023-03-20T04:29:39.377Z,0.00
2023-03-20T04:44:40.092Z,0.00
2023-03-20T04:59:41.003Z,0.00
2023-03-20T05:14:42.115Z,0.00
2023-03-20T05:29:42.909Z,11.25
2023-03-20T05:44:43.249Z,28.12
2023-03-20T05:59:43.698Z,45.00
2023-03-20T06:14:43.588Z,28.12
2023-03-20T06:29:44.042Z,39.38
2023-03-20T06:44:44.446Z,56.25
2023-03-20T06:59:45.667Z,67.50
2023-03-20T07:14:46.093Z,56.25
2023-03-20T07:29:46.172Z,101.25
2023-03-20T07:44:46.580Z,151.88
2023-03-20T07:59:46.914Z,163.12
2023-03-20T08:14:46.724Z,191.25
2023-03-20T08:29:47.211Z,523.12
2023-03-20T08:44:47.460Z,787.50
2023-03-20T08:59:47.547Z,590.62
2023-03-20T09:14:47.585Z,376.88
2023-03-20T09:29:48.546Z,185.62
2023-03-20T09:44:48.247Z,607.50
2023-03-20T09:59:48.924Z,309.38
2023-03-20T10:14:48.925Z,461.25
2023-03-20T10:29:49.504Z,241.88
2023-03-20T10:44:49.663Z,196.88
2023-03-20T10:59:50.689Z,360.00
2023-03-20T11:14:51.837Z,298.12
2023-03-20T11:29:52.398Z,196.88
2023-03-20T11:44:52.775Z,163.12
2023-03-20T11:59:53.053Z,168.75
2023-03-20T12:14:53.672Z,236.25
2023-03-20T12:29:54.117Z,590.62
2023-03-20T12:44:53.912Z,376.88
2023-03-20T12:59:53.974Z,168.75
2023-03-20T13:14:54.684Z,303.75
2023-03-20T13:29:55.244Z,118.12
2023-03-20T13:44:56.662Z,303.75
2023-03-20T13:59:56.661Z,174.38
2023-03-20T14:14:56.688Z,191.25
2023-03-20T14:29:57.209Z,163.12
2023-03-20T14:44:56.900Z,84.38
2023-03-20T14:59:56.972Z,90.00
2023-03-20T15:14:57.030Z,151.88
2023-03-20T15:29:57.616Z,292.50
2023-03-20T15:44:58.197Z,399.38
2023-03-20T15:59:57.821Z,309.38
2023-03-20T16:14:58.794Z,112.50
2023-03-20T16:29:58.686Z,101.25
2023-03-20T16:44:59.277Z,50.62
2023-03-20T16:59:59.462Z,11.25
2023-03-20T17:14:59.375Z,0.00
2023-03-20T17:29:59.681Z,0.00
2023-03-20T17:45:00.077Z,0.00
2023-03-20T18:00:00.627Z,0.00
2023-03-20T18:15:01.410Z,0.00
2023-03-20T18:30:01.678Z,0.00
2023-03-20T18:45:02.172Z,0.00
2023-03-20T19:00:02.961Z,0.00
2023-03-20T19:15:02.862Z,0.00
2023-03-20T19:30:05.883Z,0.00
2023-03-20T19:45:06.485Z,0.00
2023-03-20T20:00:55.017Z,0.00
2023-03-20T20:15:12.131Z,0.00
2023-03-20T20:30:13.039Z,0.00
2023-03-20T20:45:15.238Z,0.00
2023-03-20T21:00:22.526Z,0.00
2023-03-20T21:15:24.442Z,0.00
2023-03-20T21:30:26.282Z,0.00
2023-03-20T21:46:15.355Z,0.00
2023-03-20T22:01:14.581Z,0.00
2023-03-20T22:46:01.753Z,0.00
2023-03-20T23:00:54.470Z,0.00
2023-03-20T23:15:55.642Z,0.00
2023-03-20T23:31:09.520Z,0.00
2023-03-20T23:46:01.818Z,0.00
